Current Weather

Dover Afb

Dover, Delaware (KDOV)

Report from: Friday, April 19, 2024 3:55 AM EDT
Current time: Friday, April 19, 2024 4:22 AM EDT

Nearby weather – Weather history – Daily summaries
Weather forecast

Temperature9.0°C (48.2°F)
Wind chill7.6°C (45.7°F)
Dew point5.9°C (42.6°F)
Winds 5 kts (2.6 m/s, 5.8 mph) Northeast (40°)
Visibility10 mi. (16.1 km)
Clouds Ceiling: Overcast 1,300 ft. (396 m)
Altimeter30.10 in.Hg (1019 mB)
Relative humidity81 %
Density altitude-803 ft. (-245 m)
Sea-level pressure102.0 kPa (1020 mB, 30.11 in.Hg)
Remarks Fully automated report
Automated weather observing station with precipitation discriminator
Flight conditions Marginal Visual Meteorological Conditions
Raw dataKDOV 190755Z AUTO 04005KT 10SM OVC013 09/06 A3010 RMK AO2 SLP197 T00900059
An error has occurred. This application may no longer respond until reloaded. Reload 🗙